Time;durP1;ratioP1;P1;durP2;ratioP2;P2;SDS_P1;SDS_P2;PMS_P1;PMS_P2;Temp;Humidity;BMP_temperature;BMP_pressure;BME280_temperature;BME280_humidity;BME280_pressure;Samples;Min_cycle;Max_cycle;Signal;HPM_P1;HPM_P2
2021/12/17 00:00:19;;;;;;;470.67;155.65;;;;;;;9.33;100.00;99480.38;4856229;29;20056;-63
2021/12/17 00:06:11;;;;;;;493.27;151.15;;;;;;;9.15;100.00;99489.13;4857185;29;20060;-64
2021/12/17 00:08:55;;;;;;;473.20;151.15;;;;;;;9.17;100.00;99492.56;4855882;29;20064;-63
2021/12/17 00:11:42;;;;;;;510.95;154.20;;;;;;;9.18;100.00;99489.09;4855717;29;20061;-64
2021/12/17 00:14:29;;;;;;;476.25;151.88;;;;;;;9.12;100.00;99491.72;4855900;29;20137;-63
2021/12/17 00:17:21;;;;;;;485.25;149.98;;;;;;;9.07;100.00;99493.50;4856498;29;20045;-64
2021/12/17 00:40:23;;;;;;;475.88;147.52;;;;;;;8.88;100.00;99497.13;4837604;29;20061;-63
2021/12/17 00:53:15;;;;;;;492.20;154.70;;;;;;;8.90;100.00;99531.38;4861093;29;20053;-64
2021/12/17 00:56:10;;;;;;;497.80;150.93;;;;;;;9.03;100.00;99531.22;4837211;29;20061;-63
2021/12/17 00:58:46;;;;;;;490.55;153.77;;;;;;;9.10;100.00;99530.28;4841845;29;20455;-63
2021/12/17 01:01:34;;;;;;;519.53;159.10;;;;;;;9.01;100.00;99535.56;4853403;29;20116;-63
2021/12/17 01:04:15;;;;;;;486.65;153.23;;;;;;;9.01;100.00;99543.25;4854534;29;20056;-64
2021/12/17 01:07:12;;;;;;;505.55;152.55;;;;;;;9.03;100.00;99543.22;4848958;29;20520;-64
2021/12/17 01:09:49;;;;;;;484.98;150.57;;;;;;;8.93;100.00;99545.06;4851081;29;20053;-64
2021/12/17 01:12:46;;;;;;;487.23;152.23;;;;;;;9.17;100.00;99546.53;4852771;29;20785;-64
2021/12/17 01:15:55;;;;;;;478.30;148.20;;;;;;;9.17;100.00;99552.53;4839779;29;20045;-64
2021/12/17 01:19:12;;;;;;;500.83;148.18;;;;;;;9.09;100.00;99556.88;4839385;29;20052;-63
2021/12/17 01:35:43;;;;;;;457.20;140.27;;;;;;;9.01;100.00;99576.66;4817798;29;20089;-64
2021/12/17 01:40:09;;;;;;;453.25;142.05;;;;;;;8.85;100.00;99579.38;4815657;29;20054;-64
2021/12/17 01:44:37;;;;;;;456.17;138.82;;;;;;;8.90;100.00;99578.47;4816743;29;20093;-63
2021/12/17 01:47:20;;;;;;;440.08;131.85;;;;;;;8.87;100.00;99587.91;4815860;29;20055;-63
2021/12/17 02:02:15;;;;;;;391.98;118.03;;;;;;;8.78;100.00;99592.25;4820732;29;20110;-64
2021/12/17 02:04:50;;;;;;;394.40;121.30;;;;;;;8.96;100.00;99592.97;4816927;29;20066;-64
2021/12/17 02:07:49;;;;;;;389.08;114.18;;;;;;;8.91;100.00;99589.59;4816265;29;20046;-63
2021/12/17 02:19:46;;;;;;;369.60;114.63;;;;;;;8.79;100.00;99591.41;4799273;29;20070;-63
2021/12/17 02:31:41;;;;;;;328.27;108.13;;;;;;;8.76;100.00;99606.88;4842283;29;20056;-64
2021/12/17 02:37:10;;;;;;;331.50;109.53;;;;;;;8.88;100.00;99615.31;4845559;29;20104;-63
2021/12/17 02:47:00;;;;;;;327.05;105.15;;;;;;;8.52;100.00;99624.16;4859317;29;20156;-64
2021/12/17 02:49:45;;;;;;;331.70;105.00;;;;;;;8.54;100.00;99617.31;4871433;29;20049;-63
2021/12/17 02:52:36;;;;;;;310.55;103.53;;;;;;;8.62;100.00;99633.50;4849214;29;20053;-63
2021/12/17 02:55:19;;;;;;;325.30;107.70;;;;;;;8.65;100.00;99633.47;4862298;29;20117;-63
2021/12/17 02:58:07;;;;;;;330.05;104.03;;;;;;;8.73;100.00;99636.84;4864492;29;20120;-64
2021/12/17 03:00:50;;;;;;;313.63;105.10;;;;;;;8.86;100.00;99637.63;4860710;29;20053;-64
2021/12/17 03:03:40;;;;;;;326.23;106.07;;;;;;;8.71;100.00;99644.56;4863068;29;20053;-64
2021/12/17 03:06:21;;;;;;;314.27;106.22;;;;;;;8.76;100.00;99645.38;4866387;29;20136;-64
2021/12/17 03:09:11;;;;;;;327.25;112.50;;;;;;;8.56;100.00;99639.53;4864359;29;20049;-64
2021/12/17 03:11:59;;;;;;;308.20;106.82;;;;;;;8.79;100.00;99637.66;4861838;29;20537;-64
2021/12/17 03:14:55;;;;;;;319.40;108.10;;;;;;;8.67;100.00;99640.31;4852793;29;20056;-64
2021/12/17 03:18:11;;;;;;;311.05;104.68;;;;;;;8.72;100.00;99641.13;4859107;29;20537;-64
2021/12/17 03:23:59;;;;;;;346.40;109.03;;;;;;;8.75;100.00;99648.81;4864788;29;20053;-64
2021/12/17 03:26:41;;;;;;;328.77;106.55;;;;;;;8.92;100.00;99648.69;4858620;29;20053;-64
2021/12/17 03:29:31;;;;;;;320.92;105.82;;;;;;;9.12;100.00;99651.09;4864668;29;20049;-65
2021/12/17 03:32:15;;;;;;;332.50;107.28;;;;;;;9.12;100.00;99656.22;4879629;29;20054;-64
2021/12/17 03:35:04;;;;;;;306.00;103.50;;;;;;;8.98;100.00;99655.50;4857377;29;20041;-63
2021/12/17 03:37:46;;;;;;;323.52;107.85;;;;;;;9.06;100.00;99671.72;4852605;29;20057;-64
2021/12/17 03:40:34;;;;;;;315.50;107.97;;;;;;;8.99;100.00;99676.03;4855735;29;20374;-64
2021/12/17 03:43:30;;;;;;;321.45;103.72;;;;;;;9.22;100.00;99678.44;4858025;29;20056;-64
2021/12/17 03:46:20;;;;;;;325.13;105.88;;;;;;;9.20;100.00;99675.88;4863308;29;20045;-64
2021/12/17 03:49:02;;;;;;;320.58;104.55;;;;;;;9.08;100.00;99685.41;4865334;29;20153;-64
2021/12/17 03:52:06;;;;;;;309.77;104.65;;;;;;;9.06;100.00;99687.97;4854676;29;20049;-64
2021/12/17 03:55:06;;;;;;;320.27;106.20;;;;;;;9.19;100.00;99699.00;4861998;29;20041;-64
2021/12/17 03:57:47;;;;;;;312.45;104.18;;;;;;;9.30;100.00;99701.50;4863070;29;20049;-64
2021/12/17 04:00:38;;;;;;;317.02;104.90;;;;;;;9.55;100.00;99690.13;4865367;29;20101;-64
2021/12/17 04:03:27;;;;;;;317.73;106.63;;;;;;;9.56;100.00;99695.25;4859504;29;20053;-64
2021/12/17 04:06:27;;;;;;;296.58;102.18;;;;;;;9.60;100.00;99709.78;4835510;29;20303;-64
2021/12/17 04:09:11;;;;;;;288.85;100.07;;;;;;;9.67;100.00;99710.56;4855703;29;20049;-64
2021/12/17 04:12:16;;;;;;;285.20;98.60;;;;;;;9.81;100.00;99716.47;4870499;29;20612;-64
2021/12/17 04:15:08;;;;;;;254.88;97.55;;;;;;;10.40;100.00;99721.81;4851979;29;20745;-64
2021/12/17 04:18:09;;;;;;;246.20;95.82;;;;;;;10.62;100.00;99718.06;4861354;29;20084;-64
2021/12/17 04:20:44;;;;;;;278.65;97.35;;;;;;;10.72;100.00;99723.09;4861760;29;20132;-64
2021/12/17 04:23:38;;;;;;;269.35;96.55;;;;;;;10.65;100.00;99724.06;4864274;29;20532;-64
2021/12/17 04:26:16;;;;;;;258.55;92.55;;;;;;;10.52;100.00;99729.41;4865897;29;20113;-64
2021/12/17 04:29:16;;;;;;;242.07;89.88;;;;;;;10.69;100.00;99730.03;4876916;29;20060;-64
2021/12/17 04:31:59;;;;;;;230.23;88.03;;;;;;;10.88;100.00;99731.47;4871011;29;20045;-64
2021/12/17 04:34:54;;;;;;;243.02;91.18;;;;;;;11.04;100.00;99732.09;4863304;29;20064;-64
2021/12/17 04:37:37;;;;;;;246.13;93.07;;;;;;;11.04;100.00;99738.09;4859174;29;20046;-64
2021/12/17 04:40:32;;;;;;;239.68;91.57;;;;;;;11.11;100.00;99738.84;4855464;29;20046;-64
2021/12/17 04:43:16;;;;;;;247.40;94.20;;;;;;;11.20;100.00;99748.16;4854257;29;20053;-65
2021/12/17 04:46:26;;;;;;;280.58;96.70;;;;;;;11.34;100.00;99741.06;4847983;29;20468;-64
2021/12/17 04:58:31;;;;;;;254.93;94.68;;;;;;;11.63;100.00;99728.53;4872689;29;20046;-63
2021/12/17 05:01:15;;;;;;;247.93;97.45;;;;;;;11.58;100.00;99730.34;4863015;29;20059;-64
2021/12/17 05:04:11;;;;;;;257.23;97.50;;;;;;;11.69;100.00;99728.44;4859326;29;20136;-64
2021/12/17 05:06:48;;;;;;;243.32;100.53;;;;;;;11.72;100.00;99727.53;4873908;29;20045;-64
2021/12/17 05:18:33;;;;;;;251.63;102.43;;;;;;;12.55;100.00;99737.97;4870909;29;20068;-63
2021/12/17 05:21:23;;;;;;;266.15;104.43;;;;;;;12.63;100.00;99718.84;4842563;29;20063;-63
2021/12/17 05:24:12;;;;;;;257.33;100.80;;;;;;;12.58;100.00;99723.28;4858492;29;20064;-62
2021/12/17 05:27:01;;;;;;;254.48;104.43;;;;;;;12.93;100.00;99726.81;4865775;29;20128;-62
2021/12/17 05:29:53;;;;;;;268.35;104.78;;;;;;;13.08;100.00;99723.88;4840274;29;20058;-62
2021/12/17 05:32:47;;;;;;;267.33;107.63;;;;;;;12.97;100.00;99726.72;4838801;29;20153;-63
2021/12/17 05:35:23;;;;;;;234.60;103.32;;;;;;;12.90;100.00;99726.88;4849466;29;20079;-60
2021/12/17 05:38:16;;;;;;;260.25;105.60;;;;;;;13.17;100.00;99722.84;4852389;29;20041;-63
2021/12/17 05:40:58;;;;;;;244.93;105.63;;;;;;;12.81;100.00;99719.31;4837204;29;20120;-63
2021/12/17 05:44:04;;;;;;;255.00;105.72;;;;;;;12.96;100.00;99713.81;4844418;29;20067;-64
2021/12/17 05:46:49;;;;;;;235.18;104.45;;;;;;;13.22;100.00;99716.66;4856479;29;20062;-63
2021/12/17 05:49:38;;;;;;;254.55;107.07;;;;;;;12.92;100.00;99713.03;4840900;29;20052;-62
2021/12/17 05:52:20;;;;;;;271.13;111.22;;;;;;;13.22;100.00;99713.22;4853172;29;20405;-61
2021/12/17 05:55:11;;;;;;;272.13;104.93;;;;;;;13.10;100.00;99716.06;4840442;29;20072;-63
2021/12/17 05:57:54;;;;;;;264.15;109.78;;;;;;;13.07;100.00;99708.41;4843484;29;20729;-63
2021/12/17 06:00:49;;;;;;;271.98;111.65;;;;;;;12.91;100.00;99715.66;4839316;29;20061;-63
2021/12/17 06:03:57;;;;;;;281.42;109.00;;;;;;;12.78;100.00;99703.88;4836978;29;20050;-62
2021/12/17 06:07:07;;;;;;;274.00;110.05;;;;;;;12.82;100.00;99708.09;4839988;29;20054;-63
2021/12/17 06:09:59;;;;;;;285.55;107.82;;;;;;;12.43;100.00;99707.25;4842333;29;20675;-65
2021/12/17 06:12:52;;;;;;;278.67;111.03;;;;;;;12.56;100.00;99703.50;4838778;29;20057;-62
2021/12/17 06:15:41;;;;;;;274.45;111.38;;;;;;;12.56;100.00;99708.66;4843585;29;20058;-63
2021/12/17 06:18:24;;;;;;;307.20;113.88;;;;;;;12.83;100.00;99702.91;4839904;29;20661;-64
2021/12/17 06:21:14;;;;;;;300.55;110.72;;;;;;;12.32;100.00;99702.28;4853567;29;20414;-63
2021/12/17 06:24:02;;;;;;;305.90;112.63;;;;;;;12.22;100.00;99687.84;4841733;29;20053;-63
2021/12/17 06:26:51;;;;;;;328.58;115.72;;;;;;;12.29;100.00;99679.13;4845476;29;20573;-62
2021/12/17 06:29:33;;;;;;;334.88;115.55;;;;;;;12.67;100.00;99674.84;4859846;29;20054;-62
2021/12/17 06:32:32;;;;;;;339.45;118.78;;;;;;;12.76;100.00;99662.56;4844030;29;20129;-62
2021/12/17 06:35:09;;;;;;;354.48;119.38;;;;;;;12.88;100.00;99669.16;4859772;29;20088;-63
2021/12/17 06:37:57;;;;;;;383.92;123.18;;;;;;;12.97;100.00;99663.78;4842795;29;20147;-63
2021/12/17 06:40:44;;;;;;;363.52;122.80;;;;;;;12.93;100.00;99651.81;4845514;29;20049;-63
2021/12/17 06:43:38;;;;;;;360.40;121.85;;;;;;;13.10;100.00;99647.06;4861174;29;20058;-62
2021/12/17 06:46:36;;;;;;;357.38;122.75;;;;;;;12.87;100.00;99641.59;4853388;29;20068;-62
2021/12/17 07:06:00;;;;;;;336.90;119.55;;;;;;;13.16;100.00;99615.06;4836662;29;20065;-62
2021/12/17 07:33:36;;;;;;;356.40;118.13;;;;;;;12.96;100.00;99582.75;4843872;29;20050;-62
2021/12/17 07:39:47;;;;;;;339.75;119.80;;;;;;;13.19;100.00;99576.16;4812429;29;20102;-62
2021/12/17 07:42:40;;;;;;;351.58;120.88;;;;;;;13.03;100.00;99573.09;4837907;29;20081;-62
2021/12/17 07:45:29;;;;;;;333.60;116.88;;;;;;;13.22;100.00;99569.19;4837698;29;20060;-62
2021/12/17 07:48:27;;;;;;;352.33;123.78;;;;;;;13.17;100.00;99563.25;4853981;29;20053;-63
2021/12/17 07:51:17;;;;;;;368.90;126.72;;;;;;;13.35;100.00;99569.69;4829162;29;20061;-63
2021/12/17 07:54:09;;;;;;;366.30;126.00;;;;;;;13.24;100.00;99556.22;4857645;29;20117;-62
2021/12/17 07:56:57;;;;;;;353.27;122.32;;;;;;;13.48;100.00;99557.28;4822951;29;20081;-63
2021/12/17 07:59:55;;;;;;;338.45;116.10;;;;;;;13.77;100.00;99554.72;4837289;29;20483;-62
2021/12/17 08:02:41;;;;;;;352.48;118.95;;;;;;;13.49;100.00;99541.69;4838673;29;20152;-63
2021/12/17 08:05:50;;;;;;;344.85;119.57;;;;;;;13.49;100.00;99536.50;4840944;29;20141;-63
2021/12/17 08:08:47;;;;;;;366.02;122.80;;;;;;;13.48;100.00;99534.00;4843034;29;20078;-63
2021/12/17 08:11:39;;;;;;;376.40;124.63;;;;;;;13.62;100.00;99529.25;4835925;29;20054;-62
2021/12/17 08:14:21;;;;;;;355.70;121.28;;;;;;;13.67;100.00;99523.03;4837773;29;20054;-62
2021/12/17 08:17:42;;;;;;;337.95;123.50;;;;;;;13.51;100.00;99520.94;4839012;29;20060;-63
2021/12/17 08:26:42;;;;;;;333.83;116.60;;;;;;;13.54;100.00;99505.34;4856329;29;20068;-62
2021/12/17 08:32:15;;;;;;;343.98;118.43;;;;;;;13.54;100.00;99487.22;4840078;29;20140;-61
2021/12/17 08:35:10;;;;;;;338.77;119.75;;;;;;;13.64;100.00;99483.47;4860302;29;20056;-62
2021/12/17 08:37:54;;;;;;;337.92;116.30;;;;;;;13.54;100.00;99480.28;4846334;29;20133;-63
2021/12/17 08:40:44;;;;;;;337.13;115.38;;;;;;;13.71;100.00;99474.63;4857230;29;20576;-63
2021/12/17 08:43:27;;;;;;;355.13;116.70;;;;;;;13.67;100.00;99476.44;4849120;29;20058;-63
2021/12/17 08:46:20;;;;;;;366.38;123.00;;;;;;;13.90;100.00;99467.97;4833442;29;20146;-63
2021/12/17 08:49:09;;;;;;;335.10;116.57;;;;;;;13.91;100.00;99469.66;4817701;29;20046;-62
2021/12/17 08:52:15;;;;;;;358.25;122.65;;;;;;;13.82;100.00;99462.19;4846059;29;20588;-62
2021/12/17 08:54:58;;;;;;;350.95;126.13;;;;;;;14.00;100.00;99465.94;4836996;29;20058;-63
2021/12/17 08:57:51;;;;;;;354.17;127.90;;;;;;;14.07;100.00;99460.53;4836728;29;20098;-63
2021/12/17 09:00:40;;;;;;;376.70;133.57;;;;;;;14.14;99.53;99459.44;4840232;29;20064;-63
2021/12/17 09:03:31;;;;;;;358.40;131.23;;;;;;;14.21;99.88;99461.84;4852203;29;20498;-62
2021/12/17 09:06:39;;;;;;;341.33;121.78;;;;;;;14.27;92.27;99465.09;4858224;29;20080;-63
2021/12/17 09:09:27;;;;;;;298.88;117.10;;;;;;;14.30;87.87;99461.53;4839482;29;20042;-61
2021/12/17 09:12:27;;;;;;;302.13;111.50;;;;;;;14.40;83.07;99444.81;4843360;29;20045;-61
2021/12/17 09:15:09;;;;;;;285.08;108.15;;;;;;;14.38;78.65;99439.66;4843304;29;20060;-61
2021/12/17 09:18:09;;;;;;;290.63;105.28;;;;;;;14.39;78.74;99431.00;4843858;29;20060;-62
2021/12/17 09:21:01;;;;;;;236.10;93.30;;;;;;;14.38;76.01;99433.59;4839227;29;20077;-63
2021/12/17 09:24:11;;;;;;;175.13;68.47;;;;;;;14.24;69.33;99425.44;4840146;29;20063;-62
2021/12/17 09:27:24;;;;;;;187.05;69.93;;;;;;;14.17;69.55;99423.06;4831928;29;20084;-60
2021/12/17 09:30:17;;;;;;;164.40;63.92;;;;;;;14.21;68.84;99425.56;4844782;29;20053;-62
2021/12/17 09:32:59;;;;;;;161.07;63.55;;;;;;;14.21;68.60;99421.19;4847279;29;20077;-62
2021/12/17 09:35:48;;;;;;;163.57;59.85;;;;;;;14.26;67.63;99427.09;4841160;29;20065;-62
2021/12/17 09:38:37;;;;;;;130.32;52.95;;;;;;;14.27;67.24;99421.03;4842791;29;20498;-61
2021/12/17 09:41:27;;;;;;;142.40;53.75;;;;;;;14.32;66.89;99410.50;4844173;29;20042;-62
2021/12/17 09:44:14;;;;;;;133.95;53.83;;;;;;;14.31;66.67;99408.78;4836363;29;20053;-62
2021/12/17 09:47:04;;;;;;;152.15;56.40;;;;;;;14.39;67.97;99409.41;4836623;29;20258;-61
2021/12/17 09:49:46;;;;;;;121.57;50.75;;;;;;;14.37;66.86;99411.16;4839243;29;20065;-62
2021/12/17 09:52:35;;;;;;;112.32;49.17;;;;;;;14.41;66.24;99413.66;4834412;29;20118;-63
2021/12/17 09:55:24;;;;;;;111.63;46.97;;;;;;;14.41;65.70;99405.03;4835044;29;20057;-63
2021/12/17 09:58:13;;;;;;;101.78;44.22;;;;;;;14.47;64.17;99397.88;4825260;29;20251;-63
2021/12/17 10:00:55;;;;;;;108.90;43.58;;;;;;;14.45;63.69;99402.28;4836696;29;20145;-62
2021/12/17 10:03:45;;;;;;;89.53;39.63;;;;;;;14.45;62.88;99407.47;4841447;29;20058;-62
2021/12/17 10:06:27;;;;;;;92.90;40.53;;;;;;;14.49;63.11;99401.28;4848040;29;20049;-62
2021/12/17 10:09:16;;;;;;;111.00;41.85;;;;;;;14.50;63.20;99400.38;4842488;29;20053;-62
2021/12/17 10:12:07;;;;;;;102.45;44.47;;;;;;;14.53;66.25;99402.84;4840625;29;20063;-63
2021/12/17 10:15:09;;;;;;;100.43;44.58;;;;;;;14.51;66.01;99396.91;4850866;29;20106;-61
2021/12/17 10:18:00;;;;;;;106.85;42.75;;;;;;;14.48;65.60;99399.59;4843016;29;20060;-62
2021/12/17 10:20:59;;;;;;;100.28;41.97;;;;;;;14.44;63.43;99399.75;4838633;29;20061;-62
2021/12/17 10:23:42;;;;;;;87.03;38.50;;;;;;;14.45;64.39;99404.00;4841133;29;20506;-62
2021/12/17 10:26:31;;;;;;;91.10;40.92;;;;;;;14.38;63.07;99392.13;4846977;29;20057;-61
2021/12/17 10:29:23;;;;;;;95.70;42.30;;;;;;;14.36;63.24;99393.94;4854560;29;20053;-62
2021/12/17 10:32:24;;;;;;;92.45;41.80;;;;;;;14.40;65.99;99390.38;4839002;29;20065;-61
2021/12/17 10:35:18;;;;;;;98.13;43.72;;;;;;;14.46;63.88;99390.16;4836159;29;20081;-62
2021/12/17 10:38:03;;;;;;;94.65;42.40;;;;;;;14.37;66.97;99390.44;4835612;29;20058;-62
2021/12/17 10:41:03;;;;;;;90.85;40.10;;;;;;;14.22;64.98;99386.63;4836247;29;20073;-63
2021/12/17 10:43:46;;;;;;;95.35;40.05;;;;;;;14.58;67.05;99375.94;4831141;29;20064;-63
2021/12/17 10:46:57;;;;;;;97.43;41.58;;;;;;;14.64;68.36;99379.16;4835285;29;20062;-62
2021/12/17 10:49:56;;;;;;;93.20;41.58;;;;;;;14.55;67.52;99379.47;4836118;29;20780;-62
2021/12/17 10:52:45;;;;;;;95.93;40.15;;;;;;;14.45;69.38;99383.28;4836120;29;20081;-63
2021/12/17 10:55:34;;;;;;;96.28;41.35;;;;;;;14.41;73.70;99381.69;4835981;29;20058;-63
2021/12/17 10:58:17;;;;;;;115.70;45.65;;;;;;;14.32;72.74;99376.78;4843574;29;20061;-63
2021/12/17 11:01:11;;;;;;;129.60;47.90;;;;;;;14.18;73.13;99380.72;4843755;29;20072;-63
2021/12/17 11:03:46;;;;;;;131.18;50.40;;;;;;;14.11;72.83;99381.81;4854559;29;20113;-62
2021/12/17 11:07:02;;;;;;;124.65;49.13;;;;;;;14.04;74.18;99382.06;4854663;29;20065;-62
2021/12/17 11:09:58;;;;;;;115.45;47.13;;;;;;;13.88;72.99;99386.06;4847701;29;20056;-62
2021/12/17 11:12:46;;;;;;;102.78;45.83;;;;;;;14.00;71.53;99383.91;4848502;29;20073;-63
2021/12/17 11:15:30;;;;;;;103.57;45.45;;;;;;;14.18;73.51;99385.03;4845576;29;20092;-63
2021/12/17 11:18:18;;;;;;;109.95;44.60;;;;;;;13.96;75.12;99378.88;4851322;29;20057;-62
2021/12/17 11:21:01;;;;;;;112.95;45.55;;;;;;;13.88;77.43;99386.06;4841384;29;20069;-61
2021/12/17 11:23:57;;;;;;;127.43;49.15;;;;;;;13.71;76.28;99377.06;4846430;29;20396;-61
2021/12/17 11:26:32;;;;;;;121.40;48.53;;;;;;;13.72;77.28;99385.69;4843422;29;20062;-61
2021/12/17 11:29:20;;;;;;;113.20;49.88;;;;;;;13.71;80.46;99381.41;4836856;29;20439;-62
2021/12/17 11:32:11;;;;;;;119.95;50.60;;;;;;;13.66;79.14;99383.25;4837084;29;20064;-62
2021/12/17 11:35:00;;;;;;;115.70;48.92;;;;;;;13.47;82.79;99385.59;4838394;29;20077;-62
2021/12/17 11:37:42;;;;;;;121.07;50.03;;;;;;;13.44;83.98;99390.84;4837825;29;20085;-62
2021/12/17 11:40:52;;;;;;;126.63;52.10;;;;;;;13.31;86.66;99385.22;4838438;29;20148;-62
2021/12/17 11:43:59;;;;;;;121.80;50.72;;;;;;;13.19;86.86;99395.06;4838947;29;20498;-62
2021/12/17 11:47:11;;;;;;;128.57;52.28;;;;;;;13.10;89.59;99393.53;4842573;29;20050;-62
2021/12/17 11:49:50;;;;;;;132.40;55.38;;;;;;;12.99;91.04;99395.63;4837370;29;20073;-62
2021/12/17 11:52:47;;;;;;;141.95;58.28;;;;;;;13.02;93.35;99393.78;4839606;29;20064;-62
2021/12/17 11:55:35;;;;;;;163.98;63.97;;;;;;;13.02;94.40;99395.50;4846781;29;20057;-63
2021/12/17 11:58:46;;;;;;;176.85;68.28;;;;;;;13.00;96.21;99390.41;4841353;29;20050;-62
2021/12/17 12:01:57;;;;;;;170.00;69.60;;;;;;;12.88;97.42;99393.31;4833691;29;20069;-62
2021/12/17 12:04:49;;;;;;;185.63;76.72;;;;;;;12.82;100.00;99390.06;4820185;29;20078;-62
2021/12/17 12:07:30;;;;;;;200.20;78.53;;;;;;;12.74;100.00;99389.41;4834365;29;20046;-62
2021/12/17 12:10:27;;;;;;;190.32;79.32;;;;;;;12.59;100.00;99388.94;4841281;29;20380;-62
2021/12/17 12:13:05;;;;;;;225.98;82.30;;;;;;;12.52;100.00;99397.75;4845514;29;20486;-62
2021/12/17 12:16:06;;;;;;;228.05;85.05;;;;;;;12.40;100.00;99403.22;4848907;29;20161;-62
2021/12/17 12:18:57;;;;;;;238.10;88.25;;;;;;;12.31;100.00;99403.47;4849449;29;20786;-62
2021/12/17 12:22:03;;;;;;;;;;;;;;;12.33;100.00;99408.59;4848313;29;20053;-62
2021/12/17 12:25:09;;;;;;;223.07;88.55;;;;;;;12.32;100.00;99405.16;4843434;29;20314;-62
2021/12/17 12:27:51;;;;;;;233.88;90.28;;;;;;;12.35;100.00;99404.25;4847058;29;20462;-62
2021/12/17 12:30:44;;;;;;;252.75;92.28;;;;;;;12.16;100.00;99409.88;4846612;29;20118;-61
2021/12/17 12:33:26;;;;;;;242.07;92.72;;;;;;;12.07;100.00;99409.25;4841130;29;20077;-62
2021/12/17 12:36:14;;;;;;;252.55;95.35;;;;;;;11.99;100.00;99406.00;4840166;29;20056;-63
2021/12/17 12:39:31;;;;;;;277.00;92.63;;;;;;;12.06;100.00;99400.63;4844039;29;20675;-64
2021/12/17 12:42:27;;;;;;;251.95;95.47;;;;;;;11.83;100.00;99406.34;4845843;29;20041;-65
2021/12/17 12:45:13;;;;;;;256.13;97.53;;;;;;;11.94;100.00;99408.69;4833662;29;20049;-63
2021/12/17 12:48:01;;;;;;;246.57;93.53;;;;;;;11.89;100.00;99413.94;4843782;29;20058;-63
2021/12/17 12:50:49;;;;;;;247.52;92.03;;;;;;;11.93;100.00;99408.72;4848780;29;20117;-63
2021/12/17 12:53:33;;;;;;;213.43;88.15;;;;;;;11.92;100.00;99413.03;4842985;29;20057;-62
2021/12/17 12:56:22;;;;;;;212.45;89.72;;;;;;;11.87;100.00;99415.75;4505160;29;10000061;-64
2021/12/17 12:59:04;;;;;;;205.95;81.72;;;;;;;12.16;100.00;99411.59;4842308;29;20046;-64
2021/12/17 13:01:53;;;;;;;216.57;84.65;;;;;;;12.32;100.00;99412.06;4835341;29;20062;-64
2021/12/17 13:04:37;;;;;;;205.23;82.50;;;;;;;12.27;100.00;99412.19;4838566;29;20105;-62
2021/12/17 13:07:33;;;;;;;203.75;80.60;;;;;;;12.09;100.00;99425.56;4845192;29;20057;-64
2021/12/17 13:10:23;;;;;;;192.00;78.68;;;;;;;11.85;100.00;99422.66;4837356;29;20054;-63
2021/12/17 13:13:37;;;;;;;180.20;77.97;;;;;;;11.74;100.00;99419.47;4830270;29;20042;-62
2021/12/17 13:22:42;;;;;;;194.05;77.03;;;;;;;11.89;100.00;99426.84;4845967;29;20066;-64
2021/12/17 13:25:35;;;;;;;199.35;77.40;;;;;;;11.78;100.00;99428.84;4835588;29;20114;-64
2021/12/17 13:28:23;;;;;;;188.48;77.97;;;;;;;11.69;100.00;99439.34;4837027;29;20054;-64
2021/12/17 13:31:05;;;;;;;184.02;77.28;;;;;;;11.57;100.00;99431.91;4851385;29;20156;-64
2021/12/17 13:34:00;;;;;;;175.48;70.25;;;;;;;11.52;100.00;99441.44;4837288;29;20058;-64
2021/12/17 13:36:36;;;;;;;164.25;68.13;;;;;;;11.58;100.00;99436.16;4842393;29;20505;-64
2021/12/17 13:39:31;;;;;;;165.48;69.55;;;;;;;11.58;100.00;99440.47;4808557;29;20061;-63
2021/12/17 13:42:15;;;;;;;167.13;67.18;;;;;;;11.60;100.00;99434.41;4836677;29;20060;-63
2021/12/17 13:45:16;;;;;;;160.23;66.82;;;;;;;11.61;100.00;99446.41;4843383;29;20100;-63
2021/12/17 13:48:00;;;;;;;163.85;66.95;;;;;;;11.52;100.00;99442.31;4843079;29;20069;-64
2021/12/17 13:50:50;;;;;;;169.82;68.50;;;;;;;11.54;100.00;99444.84;4839362;29;20472;-62
2021/12/17 13:53:33;;;;;;;183.53;72.67;;;;;;;11.50;100.00;99443.22;4839422;29;20470;-63
2021/12/17 13:56:47;;;;;;;173.88;70.43;;;;;;;11.50;100.00;99453.53;4837592;29;20292;-63
2021/12/17 13:59:33;;;;;;;166.45;69.53;;;;;;;11.58;100.00;99454.22;4833236;29;20045;-63
2021/12/17 14:02:23;;;;;;;169.93;68.82;;;;;;;11.56;100.00;99450.84;4847166;29;20053;-63
2021/12/17 14:05:08;;;;;;;165.00;71.68;;;;;;;11.54;100.00;99452.59;4840395;29;20387;-62
2021/12/17 14:07:59;;;;;;;171.52;72.03;;;;;;;11.63;100.00;99454.97;4829529;29;20050;-62
2021/12/17 14:10:42;;;;;;;161.93;70.60;;;;;;;11.57;100.00;99452.53;4822739;29;20070;-63
2021/12/17 14:13:31;;;;;;;175.27;77.60;;;;;;;11.58;100.00;99456.78;4851613;29;20064;-62
2021/12/17 14:16:20;;;;;;;188.50;78.38;;;;;;;11.58;100.00;99451.63;4845671;29;20076;-63
2021/12/17 14:19:02;;;;;;;167.90;74.53;;;;;;;11.77;100.00;99455.56;4829021;29;20046;-63
2021/12/17 14:21:52;;;;;;;178.13;75.45;;;;;;;11.70;100.00;99450.53;4833994;29;20054;-62
2021/12/17 14:24:34;;;;;;;182.45;78.15;;;;;;;11.69;100.00;99460.00;4836235;29;20058;-63
2021/12/17 14:27:24;;;;;;;180.98;79.18;;;;;;;11.65;100.00;99449.78;4831391;29;20561;-62
2021/12/17 14:30:06;;;;;;;171.52;78.45;;;;;;;11.62;100.00;99453.28;4836993;29;20057;-62
2021/12/17 14:33:02;;;;;;;208.35;82.70;;;;;;;11.64;100.00;99448.94;4835347;29;20133;-62
2021/12/17 14:36:04;;;;;;;173.07;80.75;;;;;;;11.64;100.00;99448.94;4820223;29;20050;-62
2021/12/17 14:39:06;;;;;;;189.95;84.65;;;;;;;11.71;100.00;99453.09;4829249;29;20057;-61
2021/12/17 14:41:58;;;;;;;204.43;84.45;;;;;;;11.80;100.00;99442.59;4811066;29;20518;-62
2021/12/17 14:44:54;;;;;;;193.85;87.15;;;;;;;11.77;100.00;99445.22;4825013;29;20055;-62
2021/12/17 14:47:50;;;;;;;209.02;90.03;;;;;;;11.77;100.00;99441.78;4817182;29;20070;-62
2021/12/17 15:05:42;;;;;;;200.40;90.03;;;;;;;11.71;100.00;99450.50;4843249;29;20053;-62
2021/12/17 15:08:31;;;;;;;199.55;88.78;;;;;;;11.60;100.00;99454.19;4857588;29;20061;-62
2021/12/17 15:11:31;;;;;;;210.80;92.30;;;;;;;11.47;100.00;99453.63;4855453;29;20045;-62
2021/12/17 15:14:19;;;;;;;197.23;90.93;;;;;;;11.38;100.00;99452.06;4844439;29;20394;-62
2021/12/17 15:17:07;;;;;;;220.55;96.55;;;;;;;11.38;100.00;99452.06;4824839;29;20470;-62
2021/12/17 15:19:48;;;;;;;218.80;97.72;;;;;;;11.42;100.00;99445.09;4830549;29;20526;-61
2021/12/17 15:22:37;;;;;;;231.57;98.18;;;;;;;11.50;100.00;99453.53;4836410;29;20046;-62
2021/12/17 15:25:21;;;;;;;253.82;103.68;;;;;;;11.46;100.00;99446.75;4837952;29;20061;-63
2021/12/17 15:28:18;;;;;;;237.75;103.45;;;;;;;11.49;100.00;99451.84;4837347;29;20105;-62
2021/12/17 15:30:57;;;;;;;235.05;103.25;;;;;;;11.47;100.00;99453.63;4836919;29;20046;-62
2021/12/17 15:33:52;;;;;;;223.43;105.75;;;;;;;11.54;100.00;99454.31;4837138;29;20058;-61
2021/12/17 15:36:41;;;;;;;252.88;109.28;;;;;;;11.55;100.00;99451.72;4837812;29;20061;-60
2021/12/17 15:39:30;;;;;;;236.30;109.22;;;;;;;11.57;100.00;99462.88;4836673;29;20050;-61
2021/12/17 15:42:13;;;;;;;261.05;112.65;;;;;;;11.54;100.00;99468.06;4850037;29;20141;-64
2021/12/17 15:45:02;;;;;;;262.10;114.70;;;;;;;11.46;100.00;99464.81;4847352;29;20058;-62
2021/12/17 15:47:50;;;;;;;249.35;112.68;;;;;;;11.46;100.00;99464.81;4839126;29;20057;-60
2021/12/17 15:50:32;;;;;;;269.67;115.25;;;;;;;11.29;100.00;99456.56;4844165;29;20126;-63
2021/12/17 15:53:21;;;;;;;266.95;118.97;;;;;;;11.29;100.00;99466.88;4838566;29;20145;-64